createdAt,value
2022-09-16T00:00:15.339Z,100.00
2022-09-16T00:05:51.891Z,100.00
2022-09-16T00:11:14.281Z,100.00
2022-09-16T00:16:36.954Z,100.00
2022-09-16T00:22:01.821Z,100.00
2022-09-16T00:27:23.982Z,100.00
2022-09-16T00:32:47.461Z,100.00
2022-09-16T00:38:09.879Z,100.00
2022-09-16T00:44:07.772Z,100.00
2022-09-16T00:49:32.429Z,100.00
2022-09-16T00:54:55.459Z,100.00
2022-09-16T01:00:18.420Z,100.00
2022-09-16T01:05:45.292Z,100.00
2022-09-16T01:11:09.232Z,100.00
2022-09-16T01:16:45.699Z,100.00
2022-09-16T01:22:28.221Z,100.00
2022-09-16T01:28:03.652Z,100.00
2022-09-16T01:34:20.512Z,100.00
2022-09-16T01:40:12.007Z,100.00
2022-09-16T01:45:38.560Z,100.00
2022-09-16T01:51:03.221Z,100.00
2022-09-16T01:56:33.801Z,100.00
2022-09-16T02:02:09.983Z,100.00
2022-09-16T02:07:36.040Z,100.00
2022-09-16T02:13:04.835Z,100.00
2022-09-16T02:18:38.417Z,100.00
2022-09-16T02:24:05.999Z,100.00
2022-09-16T02:29:33.021Z,100.00
2022-09-16T02:34:57.360Z,100.00
2022-09-16T02:40:28.889Z,100.00
2022-09-16T02:45:57.482Z,100.00
2022-09-16T02:51:50.152Z,100.00
2022-09-16T02:57:14.681Z,100.00
2022-09-16T03:02:37.074Z,100.00
2022-09-16T03:08:02.002Z,100.00
2022-09-16T03:13:36.845Z,100.00
2022-09-16T03:19:38.010Z,100.00
2022-09-16T03:25:15.941Z,100.00
2022-09-16T03:30:47.843Z,100.00
2022-09-16T03:36:16.320Z,100.00
2022-09-16T03:41:40.166Z,100.00
2022-09-16T03:47:03.496Z,100.00
2022-09-16T03:52:28.382Z,100.00
2022-09-16T03:57:56.800Z,100.00
2022-09-16T04:03:21.400Z,100.00
2022-09-16T04:08:45.580Z,100.00
2022-09-16T04:14:08.870Z,100.00
2022-09-16T04:19:31.781Z,100.00
2022-09-16T04:24:58.014Z,100.00
2022-09-16T04:30:34.736Z,100.00
2022-09-16T04:36:19.859Z,100.00
2022-09-16T04:41:46.241Z,100.00
2022-09-16T04:47:09.863Z,100.00
2022-09-16T04:52:35.099Z,100.00
2022-09-16T04:58:01.100Z,100.00
2022-09-16T05:03:26.237Z,100.00
2022-09-16T05:08:51.601Z,100.00
2022-09-16T05:14:20.042Z,100.00
2022-09-16T05:19:42.570Z,100.00
2022-09-16T05:25:06.219Z,100.00
2022-09-16T05:36:43.159Z,100.00
2022-09-16T05:42:10.998Z,100.00
2022-09-16T05:47:42.063Z,100.00
2022-09-16T05:53:13.962Z,100.00
2022-09-16T05:58:39.121Z,100.00
2022-09-16T06:04:07.370Z,100.00
2022-09-16T06:09:38.898Z,100.00
2022-09-16T06:15:03.425Z,100.00
2022-09-16T06:20:26.046Z,100.00
2022-09-16T06:25:52.492Z,100.00
2022-09-16T06:31:19.538Z,100.00
2022-09-16T06:36:46.112Z,100.00
2022-09-16T06:42:18.091Z,100.00
2022-09-16T06:47:43.401Z,100.00
2022-09-16T06:59:03.158Z,100.00
2022-09-16T07:04:32.932Z,100.00
2022-09-16T07:09:59.464Z,100.00
2022-09-16T07:15:22.257Z,100.00
2022-09-16T07:20:49.650Z,100.00
2022-09-16T07:26:19.941Z,100.00
2022-09-16T07:31:42.686Z,100.00
2022-09-16T07:37:05.019Z,100.00
2022-09-16T07:42:35.008Z,100.00
2022-09-16T07:47:57.611Z,100.00
2022-09-16T07:53:25.206Z,100.00
2022-09-16T07:58:56.740Z,100.00
2022-09-16T08:04:27.489Z,100.00
2022-09-16T08:16:44.906Z,100.00
2022-09-16T08:22:07.017Z,100.00
2022-09-16T08:27:29.049Z,100.00
2022-09-16T08:32:58.716Z,100.00
2022-09-16T08:38:21.087Z,100.00
2022-09-16T08:44:16.381Z,100.00
2022-09-16T08:49:46.591Z,100.00
2022-09-16T08:55:18.412Z,100.00
2022-09-16T09:00:42.988Z,100.00
2022-09-16T09:06:37.711Z,100.00
2022-09-16T09:12:09.939Z,100.00
2022-09-16T09:17:47.890Z,100.00
2022-09-16T09:23:34.876Z,100.00
2022-09-16T09:29:39.571Z,100.00
2022-09-16T09:35:25.740Z,100.00
2022-09-16T09:41:10.230Z,100.00
2022-09-16T09:46:51.762Z,100.00
2022-09-16T09:52:40.033Z,100.00
2022-09-16T09:58:23.623Z,100.00
2022-09-16T10:03:56.071Z,100.00
2022-09-16T10:09:27.880Z,100.00
2022-09-16T10:14:56.213Z,100.00
2022-09-16T10:20:32.191Z,98.78
2022-09-16T10:26:39.171Z,99.87
2022-09-16T10:32:07.080Z,91.54
2022-09-16T10:37:29.190Z,95.65
2022-09-16T10:42:53.871Z,97.98
2022-09-16T10:48:19.892Z,94.48
2022-09-16T10:53:46.957Z,91.44
2022-09-16T10:59:13.965Z,91.52
2022-09-16T11:04:45.467Z,90.91
2022-09-16T11:10:47.129Z,84.81
2022-09-16T11:16:55.410Z,84.43
2022-09-16T11:22:41.747Z,84.20
2022-09-16T11:28:41.327Z,84.49
2022-09-16T11:34:30.431Z,85.52
2022-09-16T11:39:58.190Z,85.57
2022-09-16T11:45:42.939Z,85.81
2022-09-16T11:51:27.705Z,83.63
2022-09-16T11:57:17.990Z,82.72
2022-09-16T12:03:03.014Z,81.70
2022-09-16T12:08:38.229Z,82.30
2022-09-16T12:14:19.791Z,83.57
2022-09-16T12:19:47.772Z,85.03
2022-09-16T12:25:46.112Z,86.30
2022-09-16T12:31:23.010Z,87.15
2022-09-16T12:36:53.520Z,88.24
2022-09-16T12:42:34.197Z,88.49
2022-09-16T12:48:25.560Z,87.61
2022-09-16T12:54:25.879Z,88.38
2022-09-16T13:00:19.173Z,86.67
2022-09-16T13:05:48.574Z,87.08
2022-09-16T13:17:12.753Z,86.01
2022-09-16T13:22:38.491Z,85.05
2022-09-16T13:28:02.531Z,85.29
2022-09-16T13:33:28.063Z,84.13
2022-09-16T13:38:54.614Z,85.73
2022-09-16T13:44:40.230Z,86.46
2022-09-16T13:50:16.510Z,86.12
2022-09-16T13:55:42.714Z,88.03
2022-09-16T14:01:22.666Z,87.62
2022-09-16T14:07:12.114Z,90.00
2022-09-16T14:12:50.529Z,90.69
2022-09-16T14:18:20.092Z,91.59
2022-09-16T14:23:46.328Z,93.08
2022-09-16T14:29:15.400Z,94.52
2022-09-16T14:34:39.203Z,94.46
2022-09-16T14:40:26.749Z,94.98
2022-09-16T14:51:27.759Z,95.94
2022-09-16T14:57:10.214Z,95.84
2022-09-16T15:02:41.487Z,97.54
2022-09-16T15:08:27.849Z,97.51
2022-09-16T15:13:53.619Z,98.19
2022-09-16T15:19:46.181Z,97.90
2022-09-16T15:25:22.155Z,99.80
2022-09-16T15:30:58.209Z,100.00
2022-09-16T15:36:52.719Z,100.00
2022-09-16T15:42:15.139Z,100.00
2022-09-16T15:47:50.401Z,100.00
2022-09-16T15:53:35.190Z,100.00
2022-09-16T15:59:04.952Z,100.00
2022-09-16T16:04:34.048Z,100.00
2022-09-16T16:09:56.783Z,100.00
2022-09-16T16:15:26.880Z,100.00
2022-09-16T16:20:50.971Z,100.00
2022-09-16T16:26:14.961Z,100.00
2022-09-16T16:31:40.456Z,100.00
2022-09-16T16:37:03.312Z,100.00
2022-09-16T16:42:26.051Z,100.00
2022-09-16T16:47:48.751Z,100.00
2022-09-16T16:53:11.412Z,100.00
2022-09-16T16:58:37.229Z,100.00
2022-09-16T17:04:00.673Z,100.00
2022-09-16T17:09:22.871Z,100.00
2022-09-16T17:14:45.381Z,100.00
2022-09-16T17:20:08.615Z,100.00
2022-09-16T17:25:32.079Z,100.00
2022-09-16T17:30:54.805Z,100.00
2022-09-16T17:36:20.502Z,100.00
2022-09-16T17:41:44.695Z,100.00
2022-09-16T17:47:07.954Z,100.00
2022-09-16T17:52:31.511Z,100.00
2022-09-16T17:57:54.072Z,100.00
2022-09-16T18:03:16.871Z,100.00
2022-09-16T18:08:40.642Z,100.00
2022-09-16T18:14:07.631Z,100.00
2022-09-16T18:19:30.151Z,100.00
2022-09-16T18:24:52.971Z,100.00
2022-09-16T18:30:16.114Z,100.00
2022-09-16T18:35:39.022Z,100.00
2022-09-16T18:41:06.405Z,100.00
2022-09-16T18:46:30.661Z,100.00
2022-09-16T18:51:53.913Z,100.00
2022-09-16T18:57:17.966Z,100.00
2022-09-16T19:02:40.326Z,100.00
2022-09-16T19:08:02.471Z,100.00
2022-09-16T19:13:25.443Z,100.00
2022-09-16T19:18:51.682Z,100.00
2022-09-16T19:24:16.431Z,100.00
2022-09-16T19:29:38.082Z,100.00
2022-09-16T19:35:00.161Z,100.00
2022-09-16T19:40:22.597Z,100.00
2022-09-16T19:45:45.236Z,100.00
2022-09-16T19:51:09.991Z,100.00
2022-09-16T19:56:34.347Z,100.00
2022-09-16T20:01:57.767Z,100.00
2022-09-16T20:07:20.916Z,100.00
2022-09-16T20:12:43.072Z,100.00
2022-09-16T20:18:04.642Z,100.00
2022-09-16T20:23:26.781Z,100.00
2022-09-16T20:28:54.851Z,100.00
2022-09-16T20:39:57.180Z,100.00
2022-09-16T20:45:23.111Z,100.00
2022-09-16T20:50:48.182Z,100.00
2022-09-16T20:56:17.550Z,100.00
2022-09-16T21:02:24.043Z,100.00
2022-09-16T21:08:03.871Z,100.00
2022-09-16T21:13:43.837Z,100.00
2022-09-16T21:19:11.835Z,100.00
2022-09-16T21:24:34.133Z,100.00
2022-09-16T21:29:55.691Z,100.00
2022-09-16T21:35:17.719Z,100.00
2022-09-16T21:40:40.070Z,100.00
2022-09-16T21:46:05.505Z,100.00
2022-09-16T21:51:35.546Z,100.00
2022-09-16T21:56:57.880Z,100.00
2022-09-16T22:02:20.025Z,100.00
2022-09-16T22:07:44.741Z,100.00
2022-09-16T22:13:06.801Z,100.00
2022-09-16T22:18:31.432Z,100.00
2022-09-16T22:24:12.262Z,100.00
2022-09-16T22:29:34.491Z,100.00
2022-09-16T22:34:56.311Z,100.00
2022-09-16T22:40:19.726Z,100.00
2022-09-16T22:45:41.722Z,100.00
2022-09-16T22:51:04.879Z,100.00
2022-09-16T22:56:32.446Z,100.00
2022-09-16T23:01:54.912Z,100.00
2022-09-16T23:07:17.011Z,100.00
2022-09-16T23:12:40.682Z,100.00
2022-09-16T23:18:02.934Z,100.00
2022-09-16T23:23:25.535Z,100.00
2022-09-16T23:28:50.872Z,100.00
2022-09-16T23:34:18.189Z,100.00
2022-09-16T23:39:45.362Z,100.00
2022-09-16T23:45:08.552Z,100.00
2022-09-16T23:50:33.852Z,100.00
2022-09-16T23:55:58.631Z,100.00
